sensor_id;sensor_type;location;lat;lon;timestamp;temperature;humidity
56426;DHT22;42330;43.620;3.856;2022-11-15T00:01:46;13.90;99.90
56426;DHT22;42330;43.620;3.856;2022-11-15T00:04:12;13.90;99.90
56426;DHT22;42330;43.620;3.856;2022-11-15T00:06:37;13.90;99.90
56426;DHT22;42330;43.620;3.856;2022-11-15T00:09:03;14.00;99.90
56426;DHT22;42330;43.620;3.856;2022-11-15T00:11:29;14.00;99.90
56426;DHT22;42330;43.620;3.856;2022-11-15T00:13:56;13.90;99.90
56426;DHT22;42330;43.620;3.856;2022-11-15T00:16:22;13.90;99.90
56426;DHT22;42330;43.620;3.856;2022-11-15T00:18:48;13.90;99.90
56426;DHT22;42330;43.620;3.856;2022-11-15T00:21:14;13.90;99.90
56426;DHT22;42330;43.620;3.856;2022-11-15T00:23:40;13.90;99.90
56426;DHT22;42330;43.620;3.856;2022-11-15T00:26:06;14.00;99.90
56426;DHT22;42330;43.620;3.856;2022-11-15T00:28:32;14.00;99.90
56426;DHT22;42330;43.620;3.856;2022-11-15T00:31:03;14.00;99.90
56426;DHT22;42330;43.620;3.856;2022-11-15T00:33:29;14.00;99.90
56426;DHT22;42330;43.620;3.856;2022-11-15T00:36:09;14.00;99.90
56426;DHT22;42330;43.620;3.856;2022-11-15T00:38:36;14.00;99.90
56426;DHT22;42330;43.620;3.856;2022-11-15T00:41:03;14.00;99.90
56426;DHT22;42330;43.620;3.856;2022-11-15T00:43:29;14.00;99.90
56426;DHT22;42330;43.620;3.856;2022-11-15T00:45:55;14.00;99.90
56426;DHT22;42330;43.620;3.856;2022-11-15T00:48:21;14.00;99.90
56426;DHT22;42330;43.620;3.856;2022-11-15T00:50:47;14.00;99.90
56426;DHT22;42330;43.620;3.856;2022-11-15T00:53:12;14.00;99.90
56426;DHT22;42330;43.620;3.856;2022-11-15T00:55:38;14.00;99.90
56426;DHT22;42330;43.620;3.856;2022-11-15T00:58:03;14.00;99.90
56426;DHT22;42330;43.620;3.856;2022-11-15T01:00:29;14.00;99.90
56426;DHT22;42330;43.620;3.856;2022-11-15T01:02:55;14.00;99.90
56426;DHT22;42330;43.620;3.856;2022-11-15T01:05:21;14.00;99.90
56426;DHT22;42330;43.620;3.856;2022-11-15T01:07:46;14.00;99.90
56426;DHT22;42330;43.620;3.856;2022-11-15T01:10:12;13.90;99.90
56426;DHT22;42330;43.620;3.856;2022-11-15T01:12:38;13.90;99.90
56426;DHT22;42330;43.620;3.856;2022-11-15T01:15:04;13.90;99.90
56426;DHT22;42330;43.620;3.856;2022-11-15T01:17:30;13.90;99.90
56426;DHT22;42330;43.620;3.856;2022-11-15T01:19:56;13.90;99.90
56426;DHT22;42330;43.620;3.856;2022-11-15T01:22:22;13.90;99.90
56426;DHT22;42330;43.620;3.856;2022-11-15T01:24:50;13.80;99.90
56426;DHT22;42330;43.620;3.856;2022-11-15T01:27:15;13.80;99.90
56426;DHT22;42330;43.620;3.856;2022-11-15T01:29:41;13.80;99.90
56426;DHT22;42330;43.620;3.856;2022-11-15T01:32:07;13.80;99.90
56426;DHT22;42330;43.620;3.856;2022-11-15T01:34:33;13.90;99.90
56426;DHT22;42330;43.620;3.856;2022-11-15T01:36:58;13.80;99.90
56426;DHT22;42330;43.620;3.856;2022-11-15T01:39:24;13.80;99.90
56426;DHT22;42330;43.620;3.856;2022-11-15T01:41:50;13.90;99.90
56426;DHT22;42330;43.620;3.856;2022-11-15T01:47:02;13.90;99.90
56426;DHT22;42330;43.620;3.856;2022-11-15T01:49:33;13.90;99.90
56426;DHT22;42330;43.620;3.856;2022-11-15T01:52:01;13.90;99.90
56426;DHT22;42330;43.620;3.856;2022-11-15T01:54:27;13.90;99.90
56426;DHT22;42330;43.620;3.856;2022-11-15T01:57:03;13.90;99.90
56426;DHT22;42330;43.620;3.856;2022-11-15T01:59:31;13.90;99.90
56426;DHT22;42330;43.620;3.856;2022-11-15T02:01:57;13.90;99.90
56426;DHT22;42330;43.620;3.856;2022-11-15T02:04:26;13.90;99.90
56426;DHT22;42330;43.620;3.856;2022-11-15T02:06:53;13.90;99.90
56426;DHT22;42330;43.620;3.856;2022-11-15T02:09:19;13.90;99.90
56426;DHT22;42330;43.620;3.856;2022-11-15T02:11:46;13.90;99.90
56426;DHT22;42330;43.620;3.856;2022-11-15T02:14:14;13.90;99.90
56426;DHT22;42330;43.620;3.856;2022-11-15T02:28:35;13.90;99.90
56426;DHT22;42330;43.620;3.856;2022-11-15T02:33:54;13.90;99.90
56426;DHT22;42330;43.620;3.856;2022-11-15T02:39:27;14.00;99.90
56426;DHT22;42330;43.620;3.856;2022-11-15T02:42:09;13.90;99.90
56426;DHT22;42330;43.620;3.856;2022-11-15T02:44:58;13.90;99.90
56426;DHT22;42330;43.620;3.856;2022-11-15T02:47:27;13.90;99.90
56426;DHT22;42330;43.620;3.856;2022-11-15T02:49:59;13.90;99.90
56426;DHT22;42330;43.620;3.856;2022-11-15T02:52:26;13.90;99.90
56426;DHT22;42330;43.620;3.856;2022-11-15T02:54:54;13.90;99.90
56426;DHT22;42330;43.620;3.856;2022-11-15T03:04:56;13.90;99.90
56426;DHT22;42330;43.620;3.856;2022-11-15T03:10:12;13.90;99.90
56426;DHT22;42330;43.620;3.856;2022-11-15T03:13:04;13.90;99.90
56426;DHT22;42330;43.620;3.856;2022-11-15T03:15:38;13.90;99.90
56426;DHT22;42330;43.620;3.856;2022-11-15T03:20:42;13.90;99.90
56426;DHT22;42330;43.620;3.856;2022-11-15T03:23:10;13.90;99.90
56426;DHT22;42330;43.620;3.856;2022-11-15T03:25:47;13.80;99.90
56426;DHT22;42330;43.620;3.856;2022-11-15T03:28:20;13.80;99.90
56426;DHT22;42330;43.620;3.856;2022-11-15T03:30:48;13.80;99.90
56426;DHT22;42330;43.620;3.856;2022-11-15T03:33:15;13.80;99.90
56426;DHT22;42330;43.620;3.856;2022-11-15T03:35:44;13.80;99.90
56426;DHT22;42330;43.620;3.856;2022-11-15T03:38:26;13.80;99.90
56426;DHT22;42330;43.620;3.856;2022-11-15T03:41:01;13.80;99.90
56426;DHT22;42330;43.620;3.856;2022-11-15T03:46:20;13.80;99.90
56426;DHT22;42330;43.620;3.856;2022-11-15T03:48:51;13.80;99.90
56426;DHT22;42330;43.620;3.856;2022-11-15T03:51:19;13.80;99.90
56426;DHT22;42330;43.620;3.856;2022-11-15T03:53:45;13.80;99.90
56426;DHT22;42330;43.620;3.856;2022-11-15T03:56:11;13.80;99.90
56426;DHT22;42330;43.620;3.856;2022-11-15T03:58:37;13.80;99.90
56426;DHT22;42330;43.620;3.856;2022-11-15T04:01:03;13.80;99.90
56426;DHT22;42330;43.620;3.856;2022-11-15T04:03:28;13.80;99.90
56426;DHT22;42330;43.620;3.856;2022-11-15T04:05:54;13.80;99.90
56426;DHT22;42330;43.620;3.856;2022-11-15T04:08:20;13.80;99.90
56426;DHT22;42330;43.620;3.856;2022-11-15T04:10:48;13.80;99.90
56426;DHT22;42330;43.620;3.856;2022-11-15T04:13:13;13.80;99.90
56426;DHT22;42330;43.620;3.856;2022-11-15T04:15:39;13.70;99.90
56426;DHT22;42330;43.620;3.856;2022-11-15T04:18:05;13.80;99.90
56426;DHT22;42330;43.620;3.856;2022-11-15T04:20:31;13.80;99.90
56426;DHT22;42330;43.620;3.856;2022-11-15T04:23:18;13.80;99.90
56426;DHT22;42330;43.620;3.856;2022-11-15T04:26:07;13.70;99.90
56426;DHT22;42330;43.620;3.856;2022-11-15T04:28:33;13.80;99.90
56426;DHT22;42330;43.620;3.856;2022-11-15T04:30:59;13.80;99.90
56426;DHT22;42330;43.620;3.856;2022-11-15T04:33:25;13.80;99.90
56426;DHT22;42330;43.620;3.856;2022-11-15T04:35:51;13.80;99.90
56426;DHT22;42330;43.620;3.856;2022-11-15T04:38:36;13.80;99.90
56426;DHT22;42330;43.620;3.856;2022-11-15T04:41:02;13.70;99.90
56426;DHT22;42330;43.620;3.856;2022-11-15T04:43:28;13.80;99.90
56426;DHT22;42330;43.620;3.856;2022-11-15T04:45:54;13.80;99.90
56426;DHT22;42330;43.620;3.856;2022-11-15T04:48:20;13.80;99.90
56426;DHT22;42330;43.620;3.856;2022-11-15T04:50:48;13.80;99.90
56426;DHT22;42330;43.620;3.856;2022-11-15T04:53:14;13.80;99.90
56426;DHT22;42330;43.620;3.856;2022-11-15T04:55:40;13.80;99.90
56426;DHT22;42330;43.620;3.856;2022-11-15T04:58:09;13.80;99.90
56426;DHT22;42330;43.620;3.856;2022-11-15T05:00:35;13.80;99.90
56426;DHT22;42330;43.620;3.856;2022-11-15T05:03:00;13.70;99.90
56426;DHT22;42330;43.620;3.856;2022-11-15T05:06:05;13.70;99.90
56426;DHT22;42330;43.620;3.856;2022-11-15T05:08:32;13.80;99.90
56426;DHT22;42330;43.620;3.856;2022-11-15T05:10:57;13.80;99.90
56426;DHT22;42330;43.620;3.856;2022-11-15T05:13:23;13.70;99.90
56426;DHT22;42330;43.620;3.856;2022-11-15T05:15:49;13.80;99.90
56426;DHT22;42330;43.620;3.856;2022-11-15T05:18:14;13.80;99.90
56426;DHT22;42330;43.620;3.856;2022-11-15T05:20:40;13.80;99.90
56426;DHT22;42330;43.620;3.856;2022-11-15T05:23:05;13.80;99.90
56426;DHT22;42330;43.620;3.856;2022-11-15T05:25:31;13.80;99.90
56426;DHT22;42330;43.620;3.856;2022-11-15T05:27:57;13.80;99.90
56426;DHT22;42330;43.620;3.856;2022-11-15T05:30:23;13.80;99.90
56426;DHT22;42330;43.620;3.856;2022-11-15T05:32:49;13.80;99.90
56426;DHT22;42330;43.620;3.856;2022-11-15T05:35:30;13.80;99.90
56426;DHT22;42330;43.620;3.856;2022-11-15T05:37:58;13.80;99.90
56426;DHT22;42330;43.620;3.856;2022-11-15T05:40:24;13.80;99.90
56426;DHT22;42330;43.620;3.856;2022-11-15T05:42:50;13.80;99.90
56426;DHT22;42330;43.620;3.856;2022-11-15T05:45:16;13.80;99.90
56426;DHT22;42330;43.620;3.856;2022-11-15T05:47:42;13.80;99.90
56426;DHT22;42330;43.620;3.856;2022-11-15T05:50:12;13.80;99.90
56426;DHT22;42330;43.620;3.856;2022-11-15T05:52:39;13.80;99.90
56426;DHT22;42330;43.620;3.856;2022-11-15T05:55:06;13.80;99.90
56426;DHT22;42330;43.620;3.856;2022-11-15T05:57:32;13.80;99.90
56426;DHT22;42330;43.620;3.856;2022-11-15T05:59:58;13.80;99.90
56426;DHT22;42330;43.620;3.856;2022-11-15T06:02:24;13.70;99.90
56426;DHT22;42330;43.620;3.856;2022-11-15T06:04:49;13.70;99.90
56426;DHT22;42330;43.620;3.856;2022-11-15T06:07:15;13.70;99.90
56426;DHT22;42330;43.620;3.856;2022-11-15T06:09:41;13.70;99.90
56426;DHT22;42330;43.620;3.856;2022-11-15T06:12:06;13.70;99.90
56426;DHT22;42330;43.620;3.856;2022-11-15T06:14:32;13.70;99.90
56426;DHT22;42330;43.620;3.856;2022-11-15T06:16:58;13.70;99.90
56426;DHT22;42330;43.620;3.856;2022-11-15T06:19:23;13.70;99.90
56426;DHT22;42330;43.620;3.856;2022-11-15T06:21:49;13.80;99.90
56426;DHT22;42330;43.620;3.856;2022-11-15T06:24:14;13.70;99.90
56426;DHT22;42330;43.620;3.856;2022-11-15T06:26:40;13.80;99.90
56426;DHT22;42330;43.620;3.856;2022-11-15T06:29:06;13.70;99.90
56426;DHT22;42330;43.620;3.856;2022-11-15T06:31:33;13.80;99.90
56426;DHT22;42330;43.620;3.856;2022-11-15T06:33:59;13.80;99.90
56426;DHT22;42330;43.620;3.856;2022-11-15T06:36:24;13.80;99.90
56426;DHT22;42330;43.620;3.856;2022-11-15T06:38:50;13.80;99.90
56426;DHT22;42330;43.620;3.856;2022-11-15T06:41:16;13.80;99.90
56426;DHT22;42330;43.620;3.856;2022-11-15T06:43:43;13.80;99.90
56426;DHT22;42330;43.620;3.856;2022-11-15T06:46:08;13.80;99.90
56426;DHT22;42330;43.620;3.856;2022-11-15T06:48:35;13.80;99.90
56426;DHT22;42330;43.620;3.856;2022-11-15T06:51:03;13.80;99.90
56426;DHT22;42330;43.620;3.856;2022-11-15T06:53:30;13.80;99.90
56426;DHT22;42330;43.620;3.856;2022-11-15T06:56:03;13.80;99.90
56426;DHT22;42330;43.620;3.856;2022-11-15T06:58:29;13.80;99.90
56426;DHT22;42330;43.620;3.856;2022-11-15T07:01:06;13.70;99.90
56426;DHT22;42330;43.620;3.856;2022-11-15T07:03:40;13.80;99.90
56426;DHT22;42330;43.620;3.856;2022-11-15T07:06:07;13.70;99.90
56426;DHT22;42330;43.620;3.856;2022-11-15T07:08:34;13.70;99.90
56426;DHT22;42330;43.620;3.856;2022-11-15T07:11:02;13.70;99.90
56426;DHT22;42330;43.620;3.856;2022-11-15T07:13:30;13.70;99.90
56426;DHT22;42330;43.620;3.856;2022-11-15T07:16:04;13.70;99.90
56426;DHT22;42330;43.620;3.856;2022-11-15T07:18:30;13.70;99.90
56426;DHT22;42330;43.620;3.856;2022-11-15T07:21:00;13.70;99.90
56426;DHT22;42330;43.620;3.856;2022-11-15T07:23:26;13.70;99.90
56426;DHT22;42330;43.620;3.856;2022-11-15T07:25:51;13.70;99.90
56426;DHT22;42330;43.620;3.856;2022-11-15T07:28:17;13.70;99.90
56426;DHT22;42330;43.620;3.856;2022-11-15T07:30:43;13.70;99.90
56426;DHT22;42330;43.620;3.856;2022-11-15T07:33:08;13.70;99.90
56426;DHT22;42330;43.620;3.856;2022-11-15T07:35:34;13.70;99.90
56426;DHT22;42330;43.620;3.856;2022-11-15T07:38:01;13.70;99.90
56426;DHT22;42330;43.620;3.856;2022-11-15T07:40:29;13.70;99.90
56426;DHT22;42330;43.620;3.856;2022-11-15T07:43:03;13.70;99.90
56426;DHT22;42330;43.620;3.856;2022-11-15T07:45:29;13.70;99.90
56426;DHT22;42330;43.620;3.856;2022-11-15T07:47:55;13.70;99.90
56426;DHT22;42330;43.620;3.856;2022-11-15T07:50:22;13.70;99.90
56426;DHT22;42330;43.620;3.856;2022-11-15T07:52:54;13.70;99.90
56426;DHT22;42330;43.620;3.856;2022-11-15T07:55:19;13.70;99.90
56426;DHT22;42330;43.620;3.856;2022-11-15T07:57:45;13.70;99.90
56426;DHT22;42330;43.620;3.856;2022-11-15T08:00:11;13.70;99.90
56426;DHT22;42330;43.620;3.856;2022-11-15T08:02:37;13.70;99.90
56426;DHT22;42330;43.620;3.856;2022-11-15T08:05:03;13.70;99.90
56426;DHT22;42330;43.620;3.856;2022-11-15T08:07:30;13.80;99.90
56426;DHT22;42330;43.620;3.856;2022-11-15T08:09:57;13.80;99.90
56426;DHT22;42330;43.620;3.856;2022-11-15T08:12:22;13.80;99.90
56426;DHT22;42330;43.620;3.856;2022-11-15T08:14:48;13.80;99.90
56426;DHT22;42330;43.620;3.856;2022-11-15T08:17:14;13.80;99.90
56426;DHT22;42330;43.620;3.856;2022-11-15T08:19:39;13.70;99.90
56426;DHT22;42330;43.620;3.856;2022-11-15T08:22:05;13.80;99.90
56426;DHT22;42330;43.620;3.856;2022-11-15T08:24:31;13.80;99.90
56426;DHT22;42330;43.620;3.856;2022-11-15T08:26:56;13.80;99.90
56426;DHT22;42330;43.620;3.856;2022-11-15T08:29:22;13.90;99.90
56426;DHT22;42330;43.620;3.856;2022-11-15T08:31:48;13.80;99.90
56426;DHT22;42330;43.620;3.856;2022-11-15T08:34:13;13.80;99.90
56426;DHT22;42330;43.620;3.856;2022-11-15T08:36:39;13.80;99.90
56426;DHT22;42330;43.620;3.856;2022-11-15T08:39:04;13.80;99.90
56426;DHT22;42330;43.620;3.856;2022-11-15T08:41:35;13.80;99.90
56426;DHT22;42330;43.620;3.856;2022-11-15T08:44:02;13.80;99.90
56426;DHT22;42330;43.620;3.856;2022-11-15T08:46:27;13.90;99.90
56426;DHT22;42330;43.620;3.856;2022-11-15T08:48:53;13.90;99.90
56426;DHT22;42330;43.620;3.856;2022-11-15T08:51:19;13.90;99.90
56426;DHT22;42330;43.620;3.856;2022-11-15T08:53:45;13.90;99.90
56426;DHT22;42330;43.620;3.856;2022-11-15T08:56:13;13.90;99.90
56426;DHT22;42330;43.620;3.856;2022-11-15T08:58:39;14.00;99.90
56426;DHT22;42330;43.620;3.856;2022-11-15T09:01:06;14.00;99.90
56426;DHT22;42330;43.620;3.856;2022-11-15T09:03:32;14.00;99.90
56426;DHT22;42330;43.620;3.856;2022-11-15T09:05:58;14.10;99.90
56426;DHT22;42330;43.620;3.856;2022-11-15T09:08:25;14.10;99.90
56426;DHT22;42330;43.620;3.856;2022-11-15T09:10:51;14.00;99.90
56426;DHT22;42330;43.620;3.856;2022-11-15T09:13:17;14.00;99.90
56426;DHT22;42330;43.620;3.856;2022-11-15T09:15:43;14.00;99.90
56426;DHT22;42330;43.620;3.856;2022-11-15T09:18:09;14.00;99.90
56426;DHT22;42330;43.620;3.856;2022-11-15T09:20:35;14.00;99.90
56426;DHT22;42330;43.620;3.856;2022-11-15T09:23:02;14.10;99.90
56426;DHT22;42330;43.620;3.856;2022-11-15T09:25:28;14.10;99.90
56426;DHT22;42330;43.620;3.856;2022-11-15T09:27:55;14.10;99.90
56426;DHT22;42330;43.620;3.856;2022-11-15T09:30:21;14.10;99.90
56426;DHT22;42330;43.620;3.856;2022-11-15T09:32:47;14.10;99.90
56426;DHT22;42330;43.620;3.856;2022-11-15T09:35:12;14.10;99.90
56426;DHT22;42330;43.620;3.856;2022-11-15T09:37:38;14.10;99.90
56426;DHT22;42330;43.620;3.856;2022-11-15T09:40:04;14.20;99.90
56426;DHT22;42330;43.620;3.856;2022-11-15T09:45:36;14.20;99.90
56426;DHT22;42330;43.620;3.856;2022-11-15T09:53:02;14.30;99.90
56426;DHT22;42330;43.620;3.856;2022-11-15T09:55:59;14.30;99.90
56426;DHT22;42330;43.620;3.856;2022-11-15T10:01:00;14.30;99.90
56426;DHT22;42330;43.620;3.856;2022-11-15T10:03:33;14.30;99.90
56426;DHT22;42330;43.620;3.856;2022-11-15T10:06:03;14.30;99.90
56426;DHT22;42330;43.620;3.856;2022-11-15T10:11:35;14.40;99.90
56426;DHT22;42330;43.620;3.856;2022-11-15T10:14:09;14.30;99.90
56426;DHT22;42330;43.620;3.856;2022-11-15T10:17:14;14.30;99.90
56426;DHT22;42330;43.620;3.856;2022-11-15T10:25:21;14.30;99.90
56426;DHT22;42330;43.620;3.856;2022-11-15T10:27:54;14.30;99.90
56426;DHT22;42330;43.620;3.856;2022-11-15T10:30:20;14.30;99.90
56426;DHT22;42330;43.620;3.856;2022-11-15T10:32:48;14.40;99.90
56426;DHT22;42330;43.620;3.856;2022-11-15T10:35:28;14.40;99.90
56426;DHT22;42330;43.620;3.856;2022-11-15T10:38:09;14.40;99.90
56426;DHT22;42330;43.620;3.856;2022-11-15T10:40:37;14.40;99.90
56426;DHT22;42330;43.620;3.856;2022-11-15T10:43:23;14.40;99.90
56426;DHT22;42330;43.620;3.856;2022-11-15T10:45:51;14.40;99.90
56426;DHT22;42330;43.620;3.856;2022-11-15T10:50:45;14.40;99.90
56426;DHT22;42330;43.620;3.856;2022-11-15T10:55:56;14.50;99.90
56426;DHT22;42330;43.620;3.856;2022-11-15T11:00:54;14.60;99.90
56426;DHT22;42330;43.620;3.856;2022-11-15T11:03:33;14.70;99.90
56426;DHT22;42330;43.620;3.856;2022-11-15T11:06:05;14.70;99.90
56426;DHT22;42330;43.620;3.856;2022-11-15T11:08:31;14.90;99.90
56426;DHT22;42330;43.620;3.856;2022-11-15T11:10:59;14.90;99.90
56426;DHT22;42330;43.620;3.856;2022-11-15T11:16:19;15.00;99.90
56426;DHT22;42330;43.620;3.856;2022-11-15T11:19:40;15.00;99.90
56426;DHT22;42330;43.620;3.856;2022-11-15T11:22:20;15.00;99.90
56426;DHT22;42330;43.620;3.856;2022-11-15T11:25:11;15.10;99.90
56426;DHT22;42330;43.620;3.856;2022-11-15T11:31:22;15.00;99.90
56426;DHT22;42330;43.620;3.856;2022-11-15T11:34:04;15.00;99.90
56426;DHT22;42330;43.620;3.856;2022-11-15T11:36:53;15.00;99.90
56426;DHT22;42330;43.620;3.856;2022-11-15T11:42:33;14.90;99.90
56426;DHT22;42330;43.620;3.856;2022-11-15T11:48:02;14.90;99.90
56426;DHT22;42330;43.620;3.856;2022-11-15T11:50:34;15.00;99.90
56426;DHT22;42330;43.620;3.856;2022-11-15T11:53:35;15.00;99.90
56426;DHT22;42330;43.620;3.856;2022-11-15T11:55:57;15.00;99.90
56426;DHT22;42330;43.620;3.856;2022-11-15T11:58:41;15.00;99.90
56426;DHT22;42330;43.620;3.856;2022-11-15T12:03:57;14.90;99.90
56426;DHT22;42330;43.620;3.856;2022-11-15T12:09:01;14.90;99.90
56426;DHT22;42330;43.620;3.856;2022-11-15T12:14:29;15.00;99.90
56426;DHT22;42330;43.620;3.856;2022-11-15T12:16:58;15.00;99.90
56426;DHT22;42330;43.620;3.856;2022-11-15T12:19:24;15.00;99.90
56426;DHT22;42330;43.620;3.856;2022-11-15T12:22:33;15.00;99.90
56426;DHT22;42330;43.620;3.856;2022-11-15T12:25:03;15.10;99.90
56426;DHT22;42330;43.620;3.856;2022-11-15T12:27:46;15.10;99.90
56426;DHT22;42330;43.620;3.856;2022-11-15T12:30:17;15.10;99.90
56426;DHT22;42330;43.620;3.856;2022-11-15T12:32:55;15.10;99.90
56426;DHT22;42330;43.620;3.856;2022-11-15T12:35:40;15.10;99.90
56426;DHT22;42330;43.620;3.856;2022-11-15T12:38:11;15.10;99.90
56426;DHT22;42330;43.620;3.856;2022-11-15T12:40:39;15.10;99.90
56426;DHT22;42330;43.620;3.856;2022-11-15T12:43:37;15.10;99.90
56426;DHT22;42330;43.620;3.856;2022-11-15T12:46:04;15.20;99.90
56426;DHT22;42330;43.620;3.856;2022-11-15T12:50:59;15.30;99.90
56426;DHT22;42330;43.620;3.856;2022-11-15T12:53:28;15.40;99.90
56426;DHT22;42330;43.620;3.856;2022-11-15T12:58:48;15.40;99.90
56426;DHT22;42330;43.620;3.856;2022-11-15T13:07:04;15.70;99.90
56426;DHT22;42330;43.620;3.856;2022-11-15T13:12:10;16.10;99.90
56426;DHT22;42330;43.620;3.856;2022-11-15T13:14:50;16.30;99.90
56426;DHT22;42330;43.620;3.856;2022-11-15T13:19:47;16.40;99.90
56426;DHT22;42330;43.620;3.856;2022-11-15T13:22:13;16.60;99.90
56426;DHT22;42330;43.620;3.856;2022-11-15T13:24:59;16.50;99.90
56426;DHT22;42330;43.620;3.856;2022-11-15T13:27:26;16.60;99.90
56426;DHT22;42330;43.620;3.856;2022-11-15T13:29:52;16.70;99.90
56426;DHT22;42330;43.620;3.856;2022-11-15T13:32:18;16.70;99.90
56426;DHT22;42330;43.620;3.856;2022-11-15T13:34:49;16.70;99.90
56426;DHT22;42330;43.620;3.856;2022-11-15T13:39:50;16.70;99.90
56426;DHT22;42330;43.620;3.856;2022-11-15T13:42:17;16.70;99.90
56426;DHT22;42330;43.620;3.856;2022-11-15T13:45:01;16.70;99.90
56426;DHT22;42330;43.620;3.856;2022-11-15T13:47:28;16.80;99.90
56426;DHT22;42330;43.620;3.856;2022-11-15T13:49:57;16.90;99.90
56426;DHT22;42330;43.620;3.856;2022-11-15T13:52:31;17.10;99.90
56426;DHT22;42330;43.620;3.856;2022-11-15T13:55:10;17.00;99.90
56426;DHT22;42330;43.620;3.856;2022-11-15T13:57:58;17.00;99.90
56426;DHT22;42330;43.620;3.856;2022-11-15T14:03:27;17.00;99.90
56426;DHT22;42330;43.620;3.856;2022-11-15T14:06:04;17.00;99.90
56426;DHT22;42330;43.620;3.856;2022-11-15T14:08:32;17.00;99.90
56426;DHT22;42330;43.620;3.856;2022-11-15T14:11:18;16.90;99.90
56426;DHT22;42330;43.620;3.856;2022-11-15T14:16:46;16.90;99.90
56426;DHT22;42330;43.620;3.856;2022-11-15T14:22:33;17.00;99.90
56426;DHT22;42330;43.620;3.856;2022-11-15T14:25:21;17.00;99.90
56426;DHT22;42330;43.620;3.856;2022-11-15T14:28:27;16.90;99.90
56426;DHT22;42330;43.620;3.856;2022-11-15T14:31:10;16.90;99.90
56426;DHT22;42330;43.620;3.856;2022-11-15T14:33:37;16.90;99.90
56426;DHT22;42330;43.620;3.856;2022-11-15T14:38:36;16.90;99.90
56426;DHT22;42330;43.620;3.856;2022-11-15T14:41:01;17.00;99.90
56426;DHT22;42330;43.620;3.856;2022-11-15T14:43:27;17.10;99.90
56426;DHT22;42330;43.620;3.856;2022-11-15T14:45:53;17.20;99.90
56426;DHT22;42330;43.620;3.856;2022-11-15T14:48:19;17.30;99.90
56426;DHT22;42330;43.620;3.856;2022-11-15T14:50:45;17.30;99.90
56426;DHT22;42330;43.620;3.856;2022-11-15T14:53:15;17.30;99.90
56426;DHT22;42330;43.620;3.856;2022-11-15T14:55:41;17.20;99.90
56426;DHT22;42330;43.620;3.856;2022-11-15T14:58:07;17.20;99.90
56426;DHT22;42330;43.620;3.856;2022-11-15T15:00:38;17.20;99.90
56426;DHT22;42330;43.620;3.856;2022-11-15T15:03:04;17.10;99.90
56426;DHT22;42330;43.620;3.856;2022-11-15T15:07:59;17.40;99.90
56426;DHT22;42330;43.620;3.856;2022-11-15T15:10:29;17.20;99.90
56426;DHT22;42330;43.620;3.856;2022-11-15T15:12:55;17.10;99.90
56426;DHT22;42330;43.620;3.856;2022-11-15T15:15:27;17.10;99.90
56426;DHT22;42330;43.620;3.856;2022-11-15T15:17:54;17.00;99.90
56426;DHT22;42330;43.620;3.856;2022-11-15T15:20:20;17.00;99.90
56426;DHT22;42330;43.620;3.856;2022-11-15T15:22:46;16.90;99.90
56426;DHT22;42330;43.620;3.856;2022-11-15T15:25:32;16.90;99.90
56426;DHT22;42330;43.620;3.856;2022-11-15T15:27:59;16.90;99.90
56426;DHT22;42330;43.620;3.856;2022-11-15T15:30:26;16.90;99.90
56426;DHT22;42330;43.620;3.856;2022-11-15T15:32:53;16.90;99.90
56426;DHT22;42330;43.620;3.856;2022-11-15T15:35:19;16.90;99.90
56426;DHT22;42330;43.620;3.856;2022-11-15T15:37:46;16.80;99.90
56426;DHT22;42330;43.620;3.856;2022-11-15T15:40:18;16.80;99.90
56426;DHT22;42330;43.620;3.856;2022-11-15T15:42:46;16.80;99.90
56426;DHT22;42330;43.620;3.856;2022-11-15T15:45:12;16.70;99.90
56426;DHT22;42330;43.620;3.856;2022-11-15T15:47:38;16.70;99.90
56426;DHT22;42330;43.620;3.856;2022-11-15T15:52:43;16.70;99.90
56426;DHT22;42330;43.620;3.856;2022-11-15T15:55:08;16.70;99.90
56426;DHT22;42330;43.620;3.856;2022-11-15T15:57:35;16.60;99.90
56426;DHT22;42330;43.620;3.856;2022-11-15T16:00:02;16.60;99.90
56426;DHT22;42330;43.620;3.856;2022-11-15T16:02:28;16.60;99.90
56426;DHT22;42330;43.620;3.856;2022-11-15T16:04:53;16.60;99.90
56426;DHT22;42330;43.620;3.856;2022-11-15T16:07:21;16.60;99.90
56426;DHT22;42330;43.620;3.856;2022-11-15T16:09:49;16.60;99.90
56426;DHT22;42330;43.620;3.856;2022-11-15T16:12:33;16.60;99.90
56426;DHT22;42330;43.620;3.856;2022-11-15T16:14:59;16.50;99.90
56426;DHT22;42330;43.620;3.856;2022-11-15T16:17:38;16.50;99.90
56426;DHT22;42330;43.620;3.856;2022-11-15T16:20:05;16.50;99.90
56426;DHT22;42330;43.620;3.856;2022-11-15T16:22:31;16.40;99.90
56426;DHT22;42330;43.620;3.856;2022-11-15T16:24:57;16.40;99.90
56426;DHT22;42330;43.620;3.856;2022-11-15T16:27:23;16.40;99.90
56426;DHT22;42330;43.620;3.856;2022-11-15T16:29:49;16.30;99.90
56426;DHT22;42330;43.620;3.856;2022-11-15T16:32:15;16.30;99.90
56426;DHT22;42330;43.620;3.856;2022-11-15T16:34:41;16.30;99.90
56426;DHT22;42330;43.620;3.856;2022-11-15T16:37:21;16.30;99.90
56426;DHT22;42330;43.620;3.856;2022-11-15T16:39:47;16.30;99.90
56426;DHT22;42330;43.620;3.856;2022-11-15T16:42:12;16.30;99.90
56426;DHT22;42330;43.620;3.856;2022-11-15T16:44:38;16.30;99.90
56426;DHT22;42330;43.620;3.856;2022-11-15T16:47:03;16.30;99.90
56426;DHT22;42330;43.620;3.856;2022-11-15T16:49:29;16.30;99.90
56426;DHT22;42330;43.620;3.856;2022-11-15T16:51:55;16.30;99.90
56426;DHT22;42330;43.620;3.856;2022-11-15T16:54:20;16.40;99.90
56426;DHT22;42330;43.620;3.856;2022-11-15T16:56:46;16.30;99.90
56426;DHT22;42330;43.620;3.856;2022-11-15T16:59:15;16.30;99.90
56426;DHT22;42330;43.620;3.856;2022-11-15T17:01:42;16.30;99.90
56426;DHT22;42330;43.620;3.856;2022-11-15T17:04:16;16.30;99.90
56426;DHT22;42330;43.620;3.856;2022-11-15T17:06:44;16.30;99.90
56426;DHT22;42330;43.620;3.856;2022-11-15T17:09:17;16.30;99.90
56426;DHT22;42330;43.620;3.856;2022-11-15T17:11:43;16.30;99.90
56426;DHT22;42330;43.620;3.856;2022-11-15T17:14:10;16.30;99.90
56426;DHT22;42330;43.620;3.856;2022-11-15T17:16:36;16.30;99.90
56426;DHT22;42330;43.620;3.856;2022-11-15T17:19:13;16.40;99.90
56426;DHT22;42330;43.620;3.856;2022-11-15T17:21:40;16.40;99.90
56426;DHT22;42330;43.620;3.856;2022-11-15T17:24:07;16.30;99.90
56426;DHT22;42330;43.620;3.856;2022-11-15T17:26:32;16.30;99.90
56426;DHT22;42330;43.620;3.856;2022-11-15T17:28:58;16.30;99.90
56426;DHT22;42330;43.620;3.856;2022-11-15T17:31:26;16.30;99.90
56426;DHT22;42330;43.620;3.856;2022-11-15T17:33:52;16.30;99.90
56426;DHT22;42330;43.620;3.856;2022-11-15T17:36:17;16.30;99.90
56426;DHT22;42330;43.620;3.856;2022-11-15T17:38:43;16.30;99.90
56426;DHT22;42330;43.620;3.856;2022-11-15T17:41:14;16.30;99.90
56426;DHT22;42330;43.620;3.856;2022-11-15T17:43:40;16.20;99.90